KDNN

Dalton Municipal Airport

Dalton, Georgia, USA
METAR KDNN 151555Z AUTO 17003KT 5SM -DZ SCT008 BKN033 OVC039 09/09 A2994 RMK AO2
Observed Flight Rules
Dec-15 @ 15:55 UTC (9 minutes ago) Marginal Visual Flight Rules
Wind Visibility Clouds Conditions
170° at 3 knots 5 miles
  • Scattered at 800' AGL
  • Broken at 3,300' AGL
  • Overcast at 3,900' AGL
  • Light Drizzle
Temperatures Readings
Current 9°C / 48°F
Dewpoint 9°C / 48°F
Humidity 100%
Altimeter 29.94" Hg
Pressure 1014 hPa
Elevation 216
METAR KDNN 151555Z AUTO 17003KT 5SM -DZ SCT008 BKN033 OVC039 09/09 A2994 RMK AO2
Observed Flight Rules
Dec-15 @ 15:55 UTC
(9 minutes ago)
MVFR
Wind Visibility
170° at 3 knots 5 miles
Clouds
  • Scattered at 800' AGL
  • Broken at 3,300' AGL
  • Overcast at 3,900' AGL
Conditions
  • Light Drizzle
Temperature Dewpoint
9°C / 48°F 9°C / 48°F
Humidity Altimeter Pressure
100% 29.94" Hg 1014 hPa